Time;durP1;ratioP1;P1;durP2;ratioP2;P2;SDS_P1;SDS_P2;PMS_P1;PMS_P2;Temp;Humidity;BMP_temperature;BMP_pressure;BME280_temperature;BME280_humidity;BME280_pressure;Samples;Min_cycle;Max_cycle;Signal;HPM_P1;HPM_P2
2022/01/20 00:02:05;;;;;;;11.77;2.65;;;4.80;99.90;;;;;;5073279;28;20115;-69
2022/01/20 00:20:29;;;;;;;14.45;3.65;;;4.80;99.90;;;;;;5073799;28;20044;-69
2022/01/20 00:23:41;;;;;;;17.17;2.40;;;4.80;99.90;;;;;;5071852;28;20445;-68
2022/01/20 00:26:07;;;;;;;8.18;2.13;;;4.80;99.90;;;;;;5072595;28;20072;-68
2022/01/20 00:28:45;;;;;;;11.27;2.33;;;4.80;99.90;;;;;;5071952;28;20125;-68
2022/01/20 00:39:26;;;;;;;14.13;1.80;;;4.80;99.90;;;;;;5076293;28;20044;-68
2022/01/20 00:41:51;;;;;;;19.85;2.97;;;4.80;99.90;;;;;;5076614;28;20037;-68
2022/01/20 00:44:17;;;;;;;17.52;3.30;;;4.80;99.90;;;;;;5075741;28;20485;-69
2022/01/20 00:46:44;;;;;;;10.70;2.17;;;4.80;99.90;;;;;;5076239;28;20090;-69
2022/01/20 00:49:10;;;;;;;9.68;2.33;;;4.80;99.90;;;;;;5076540;28;20463;-68
2022/01/20 00:51:35;;;;;;;11.93;2.33;;;4.80;99.90;;;;;;5076140;28;20037;-68
2022/01/20 00:54:01;;;;;;;12.45;2.22;;;4.80;99.90;;;;;;5076211;28;20534;-69
2022/01/20 00:56:27;;;;;;;11.90;2.50;;;4.80;99.90;;;;;;5075862;28;20144;-69
2022/01/20 00:58:52;;;;;;;10.50;2.30;;;4.90;99.90;;;;;;5076062;28;20068;-69
2022/01/20 01:01:18;;;;;;;9.77;2.30;;;4.90;99.90;;;;;;5076527;28;20037;-69
2022/01/20 01:03:43;;;;;;;14.85;2.55;;;4.90;99.90;;;;;;5076180;28;20040;-68
2022/01/20 01:06:27;;;;;;;11.40;2.15;;;4.90;99.90;;;;;;5076338;28;20040;-69
2022/01/20 01:08:53;;;;;;;11.63;2.53;;;5.00;99.90;;;;;;5076052;28;20047;-69
2022/01/20 01:11:20;;;;;;;13.60;2.10;;;5.00;99.90;;;;;;5076377;28;20025;-69
2022/01/20 01:13:46;;;;;;;13.90;2.72;;;5.10;99.90;;;;;;5076168;28;20248;-68
2022/01/20 01:16:13;;;;;;;10.95;2.22;;;5.10;99.90;;;;;;5075892;28;20076;-68
2022/01/20 01:24:07;;;;;;;4.50;1.20;;;4.80;99.90;;;;;;5074744;28;20052;-69
2022/01/20 01:26:33;;;;;;;7.43;1.25;;;4.80;99.90;;;;;;5075399;28;20043;-69
2022/01/20 01:28:59;;;;;;;5.28;0.82;;;4.60;99.90;;;;;;5074604;28;20485;-68
2022/01/20 01:31:38;;;;;;;6.22;1.05;;;4.50;99.90;;;;;;5075495;28;20044;-69
2022/01/20 01:34:09;;;;;;;7.45;1.08;;;4.40;99.90;;;;;;5074743;28;20040;-68
2022/01/20 01:39:29;;;;;;;5.68;1.13;;;4.40;99.90;;;;;;5069540;28;20045;-68
2022/01/20 01:41:57;;;;;;;5.90;1.10;;;4.40;99.90;;;;;;5074078;28;20105;-69
2022/01/20 01:44:27;;;;;;;7.68;1.55;;;4.30;99.90;;;;;;5075415;28;20401;-68
2022/01/20 01:46:53;;;;;;;6.90;1.20;;;4.30;99.90;;;;;;5073645;28;20516;-69
2022/01/20 01:49:20;;;;;;;10.10;1.55;;;4.30;99.90;;;;;;5075238;28;20040;-69
2022/01/20 01:51:46;;;;;;;7.53;1.30;;;4.30;99.90;;;;;;5057668;28;20435;-69
2022/01/20 01:54:13;;;;;;;9.05;1.40;;;4.20;99.90;;;;;;5074176;28;20033;-68
2022/01/20 01:56:40;;;;;;;9.20;1.13;;;4.20;99.90;;;;;;5075272;28;20049;-69
2022/01/20 01:59:06;;;;;;;5.35;1.17;;;4.30;99.90;;;;;;5075561;28;20048;-69
2022/01/20 02:01:35;;;;;;;8.43;1.58;;;4.30;99.90;;;;;;5075566;28;20119;-69
2022/01/20 02:04:12;;;;;;;9.35;1.58;;;4.30;99.90;;;;;;5075349;28;20113;-68
2022/01/20 02:07:01;;;;;;;10.77;1.70;;;4.40;99.90;;;;;;5074483;28;20397;-69
2022/01/20 02:20:20;;;;;;;15.80;2.72;;;4.50;99.90;;;;;;5073548;28;20546;-69
2022/01/20 02:22:46;;;;;;;10.07;2.20;;;4.50;99.90;;;;;;5074615;28;20040;-69
2022/01/20 02:25:24;;;;;;;17.73;2.45;;;4.40;99.90;;;;;;5074421;28;20072;-69
2022/01/20 02:27:51;;;;;;;17.58;2.40;;;4.70;99.90;;;;;;5074118;28;20479;-69
2022/01/20 02:30:18;;;;;;;19.88;4.13;;;4.50;99.90;;;;;;5074647;28;20068;-69
2022/01/20 02:33:11;;;;;;;8.18;2.42;;;4.40;99.90;;;;;;5074456;28;20060;-69
2022/01/20 02:35:45;;;;;;;13.02;2.20;;;4.40;99.90;;;;;;5073611;28;20053;-69
2022/01/20 02:38:17;;;;;;;16.80;2.85;;;4.50;99.90;;;;;;5074504;28;20051;-69
2022/01/20 02:45:56;;;;;;;20.13;4.00;;;4.00;99.90;;;;;;5074230;28;20049;-69
2022/01/20 02:48:22;;;;;;;14.43;2.78;;;4.00;99.90;;;;;;5074533;28;20047;-69
2022/01/20 02:50:48;;;;;;;13.73;3.45;;;4.00;99.90;;;;;;5073965;28;20066;-69
2022/01/20 02:53:13;;;;;;;20.92;2.97;;;4.00;99.90;;;;;;5074045;28;20036;-69
2022/01/20 02:55:39;;;;;;;27.42;3.97;;;4.20;99.90;;;;;;5073989;28;20037;-69
2022/01/20 02:58:06;;;;;;;22.80;4.82;;;4.20;99.90;;;;;;5073372;28;20115;-69
2022/01/20 03:00:34;;;;;;;20.63;3.92;;;4.20;99.90;;;;;;5072914;28;20040;-69
2022/01/20 03:03:00;;;;;;;19.27;3.33;;;4.20;99.90;;;;;;5073618;28;20050;-68
2022/01/20 03:05:26;;;;;;;25.08;4.55;;;4.20;99.90;;;;;;5072508;28;20131;-69
2022/01/20 03:07:52;;;;;;;23.63;4.28;;;4.20;99.90;;;;;;5073530;28;20037;-69
2022/01/20 03:10:18;;;;;;;17.10;4.30;;;4.20;99.90;;;;;;5072721;28;20382;-68
2022/01/20 03:12:44;;;;;;;12.55;2.50;;;4.40;99.90;;;;;;5073676;28;20111;-69
2022/01/20 03:15:11;;;;;;;18.15;3.53;;;4.40;99.90;;;;;;5073605;28;20469;-68
2022/01/20 03:17:36;;;;;;;12.48;2.47;;;4.30;99.90;;;;;;5073456;28;20036;-69
2022/01/20 03:20:02;;;;;;;21.05;5.20;;;4.20;99.90;;;;;;5073697;28;20504;-68
2022/01/20 03:22:28;;;;;;;20.00;3.47;;;4.10;99.90;;;;;;5073720;28;20040;-68
2022/01/20 03:24:55;;;;;;;13.60;3.17;;;3.90;99.90;;;;;;5073486;28;20051;-68
2022/01/20 03:27:21;;;;;;;19.80;3.28;;;4.00;99.90;;;;;;5073078;28;20040;-69
2022/01/20 03:29:46;;;;;;;11.18;3.28;;;3.90;99.90;;;;;;5072815;28;20511;-68
2022/01/20 03:32:12;;;;;;;17.35;3.03;;;3.90;99.90;;;;;;5073443;28;20037;-68
2022/01/20 03:34:37;;;;;;;16.85;4.25;;;3.90;99.90;;;;;;5073837;28;20427;-68
2022/01/20 03:37:04;;;;;;;20.90;4.60;;;3.90;99.90;;;;;;5072291;28;20048;-69
2022/01/20 03:39:31;;;;;;;23.83;5.30;;;3.90;99.90;;;;;;5071988;28;20045;-69
2022/01/20 03:41:57;;;;;;;19.67;4.40;;;4.00;99.90;;;;;;5073792;28;20432;-69
2022/01/20 03:44:22;;;;;;;19.77;4.78;;;4.20;99.90;;;;;;5073654;28;20028;-68
2022/01/20 03:46:48;;;;;;;15.98;4.15;;;4.10;99.90;;;;;;5073174;28;20044;-69
2022/01/20 03:51:58;;;;;;;16.23;3.40;;;4.10;99.90;;;;;;5073646;28;20040;-68
2022/01/20 03:54:24;;;;;;;19.98;3.25;;;4.20;99.90;;;;;;5073590;28;20043;-69
2022/01/20 03:56:49;;;;;;;11.90;2.50;;;4.30;99.90;;;;;;5072117;28;20072;-69
2022/01/20 03:59:15;;;;;;;15.30;2.63;;;4.40;99.40;;;;;;5072977;28;20499;-69
2022/01/20 04:01:40;;;;;;;19.60;2.83;;;4.30;98.60;;;;;;5071849;28;20054;-69
2022/01/20 04:04:06;;;;;;;10.05;2.60;;;4.40;96.20;;;;;;5071749;28;20118;-69
2022/01/20 04:06:32;;;;;;;17.58;2.38;;;4.50;95.60;;;;;;5072854;28;20032;-68
2022/01/20 04:08:57;;;;;;;17.80;3.58;;;4.40;94.30;;;;;;5075566;28;20040;-68
2022/01/20 04:11:26;;;;;;;11.77;2.45;;;4.30;94.60;;;;;;5077029;28;20185;-69
2022/01/20 04:13:52;;;;;;;17.98;2.80;;;4.20;94.50;;;;;;5075774;28;20043;-69
2022/01/20 04:16:39;;;;;;;14.45;2.85;;;4.20;94.10;;;;;;5076673;28;20547;-68
2022/01/20 04:19:10;;;;;;;14.88;2.75;;;4.30;92.20;;;;;;5076922;28;20174;-69
2022/01/20 04:21:38;;;;;;;9.18;2.95;;;4.20;93.40;;;;;;5077431;28;20082;-68
2022/01/20 04:24:05;;;;;;;5.85;1.90;;;4.20;92.20;;;;;;5077260;28;20043;-69
2022/01/20 04:26:33;;;;;;;9.52;2.63;;;4.20;91.80;;;;;;5076615;28;20048;-68
2022/01/20 04:28:59;;;;;;;11.13;2.15;;;4.20;92.60;;;;;;5075393;28;20051;-68
2022/01/20 04:31:26;;;;;;;12.23;2.78;;;4.20;92.70;;;;;;5075532;28;20451;-68
2022/01/20 04:33:52;;;;;;;13.93;2.75;;;4.20;92.40;;;;;;5076711;28;20037;-69
2022/01/20 04:36:18;;;;;;;11.80;3.10;;;4.10;92.20;;;;;;5075041;28;20119;-69
2022/01/20 04:38:44;;;;;;;13.40;3.17;;;4.30;91.30;;;;;;5076694;28;20461;-69
2022/01/20 04:41:10;;;;;;;9.32;2.38;;;4.30;91.40;;;;;;5076804;28;20036;-68
2022/01/20 04:43:36;;;;;;;12.70;2.28;;;4.30;91.90;;;;;;5075672;28;20381;-69
2022/01/20 04:46:09;;;;;;;15.75;2.92;;;4.40;92.40;;;;;;5076167;28;20146;-68
2022/01/20 04:49:12;;;;;;;21.13;3.42;;;4.40;92.80;;;;;;5076675;28;20044;-69
2022/01/20 04:59:34;;;;;;;10.10;3.17;;;4.30;95.00;;;;;;5076494;28;20063;-68
2022/01/20 05:02:00;;;;;;;14.82;2.50;;;4.30;94.40;;;;;;5076226;28;20036;-69
2022/01/20 05:04:26;;;;;;;15.82;2.50;;;4.20;94.60;;;;;;5076057;28;20041;-68
2022/01/20 05:06:55;;;;;;;12.73;2.47;;;4.20;95.40;;;;;;5075636;28;20481;-68
2022/01/20 05:09:22;;;;;;;13.73;3.17;;;4.10;95.70;;;;;;5076135;28;20033;-69
2022/01/20 05:12:06;;;;;;;15.30;2.97;;;3.90;96.20;;;;;;5076575;28;20078;-68
2022/01/20 05:14:31;;;;;;;12.38;3.05;;;4.00;96.40;;;;;;5075905;28;20051;-69
2022/01/20 05:16:58;;;;;;;24.10;4.72;;;4.00;96.70;;;;;;5075933;28;20119;-69
2022/01/20 05:19:25;;;;;;;16.58;3.15;;;3.90;96.80;;;;;;5073929;28;20076;-68
2022/01/20 05:21:51;;;;;;;11.98;2.53;;;3.90;97.10;;;;;;5076288;28;20033;-68
2022/01/20 05:24:16;;;;;;;11.95;2.25;;;3.90;97.40;;;;;;5076159;28;20040;-68
2022/01/20 05:26:42;;;;;;;22.10;2.55;;;3.90;96.80;;;;;;5057300;28;20373;-68
2022/01/20 05:29:08;;;;;;;13.70;3.35;;;3.80;96.80;;;;;;5075834;28;20044;-68
2022/01/20 05:31:33;;;;;;;7.47;2.30;;;3.90;96.20;;;;;;5075676;28;20036;-69
2022/01/20 05:33:59;;;;;;;9.20;1.70;;;3.80;95.10;;;;;;5075907;28;20499;-68
2022/01/20 05:36:25;;;;;;;12.43;1.77;;;3.80;95.20;;;;;;5075526;28;20093;-68
2022/01/20 05:38:51;;;;;;;13.50;3.63;;;3.80;95.60;;;;;;5075712;28;20550;-69
2022/01/20 05:41:18;;;;;;;9.40;1.98;;;3.70;96.00;;;;;;5074439;28;20052;-68
2022/01/20 05:43:44;;;;;;;14.15;2.42;;;3.70;96.60;;;;;;5075334;28;20426;-68
2022/01/20 05:46:10;;;;;;;11.65;3.13;;;3.70;97.40;;;;;;5075185;28;20037;-68
2022/01/20 05:48:36;;;;;;;14.68;2.60;;;3.80;97.40;;;;;;5074326;28;20582;-68
2022/01/20 05:51:05;;;;;;;9.00;2.47;;;3.60;97.90;;;;;;5075196;28;20032;-68
2022/01/20 05:53:32;;;;;;;10.07;1.95;;;3.40;98.60;;;;;;5074102;28;20048;-69
2022/01/20 05:55:58;;;;;;;11.90;3.03;;;3.30;99.50;;;;;;5074881;28;20033;-68
2022/01/20 05:58:24;;;;;;;16.75;2.85;;;3.40;99.90;;;;;;5075138;28;20431;-68
2022/01/20 06:00:50;;;;;;;12.95;3.45;;;3.20;99.90;;;;;;5075072;28;20046;-68
2022/01/20 06:06:01;;;;;;;15.82;2.40;;;3.20;99.90;;;;;;5074816;28;20044;-69
2022/01/20 06:08:27;;;;;;;13.73;2.83;;;3.30;99.90;;;;;;5075078;28;20056;-69
2022/01/20 06:10:52;;;;;;;14.35;2.47;;;3.30;99.90;;;;;;5075120;28;20082;-68
2022/01/20 06:13:18;;;;;;;17.88;4.03;;;3.30;99.90;;;;;;5074861;28;20041;-69
2022/01/20 06:15:45;;;;;;;13.40;4.03;;;3.50;99.90;;;;;;5074676;28;20484;-69
2022/01/20 06:18:10;;;;;;;14.65;3.05;;;3.50;99.60;;;;;;5074945;28;20048;-69
2022/01/20 06:20:40;;;;;;;13.27;3.28;;;3.60;98.90;;;;;;5073369;28;20048;-68
2022/01/20 06:23:07;;;;;;;10.40;2.50;;;3.60;99.00;;;;;;5074950;28;20047;-69
2022/01/20 06:25:33;;;;;;;22.05;3.95;;;3.70;98.90;;;;;;5074289;28;20048;-68
2022/01/20 06:27:59;;;;;;;13.80;2.67;;;3.70;97.90;;;;;;5074263;28;20044;-69
2022/01/20 06:30:25;;;;;;;13.60;2.75;;;3.70;98.40;;;;;;5074700;28;20028;-69
2022/01/20 06:32:54;;;;;;;18.33;3.83;;;3.80;98.10;;;;;;5073560;28;20040;-68
2022/01/20 06:35:20;;;;;;;12.25;2.78;;;3.90;97.30;;;;;;5074231;28;20036;-68
2022/01/20 06:37:46;;;;;;;11.23;2.60;;;4.00;96.60;;;;;;5072790;28;20155;-68
2022/01/20 06:40:12;;;;;;;11.02;3.15;;;4.00;96.50;;;;;;5072794;28;20048;-68
2022/01/20 06:42:38;;;;;;;12.57;3.40;;;3.90;96.20;;;;;;5074215;28;20032;-69
2022/01/20 06:45:09;;;;;;;18.85;3.13;;;4.00;95.80;;;;;;5074124;28;20390;-68
2022/01/20 06:47:35;;;;;;;13.95;3.92;;;4.00;96.70;;;;;;5073833;28;20041;-68
2022/01/20 06:50:01;;;;;;;15.40;3.40;;;3.90;99.10;;;;;;5074139;28;20476;-68
2022/01/20 06:52:27;;;;;;;19.15;3.20;;;4.00;99.90;;;;;;5074041;28;20415;-68
2022/01/20 06:54:53;;;;;;;18.73;4.88;;;3.90;99.90;;;;;;5073965;28;20556;-68
2022/01/20 06:57:20;;;;;;;11.05;4.07;;;3.80;99.90;;;;;;5073672;28;20079;-68
2022/01/20 06:59:45;;;;;;;14.00;3.08;;;3.70;99.90;;;;;;5073022;28;20105;-68
2022/01/20 07:02:11;;;;;;;14.77;2.72;;;3.60;99.90;;;;;;5073865;28;20485;-69
2022/01/20 07:04:38;;;;;;;16.27;2.70;;;3.60;99.90;;;;;;5073137;28;20401;-68
2022/01/20 07:07:04;;;;;;;10.93;2.83;;;3.60;99.90;;;;;;5072215;28;20047;-69
2022/01/20 07:09:30;;;;;;;14.35;2.80;;;3.50;99.90;;;;;;5072665;28;20032;-69
2022/01/20 07:11:55;;;;;;;13.40;2.85;;;3.50;99.90;;;;;;5073552;28;20107;-68
2022/01/20 07:14:21;;;;;;;13.18;3.10;;;3.50;99.90;;;;;;5073834;28;20129;-69
2022/01/20 07:16:48;;;;;;;15.20;3.22;;;3.40;99.90;;;;;;5073313;28;20043;-69
2022/01/20 07:19:14;;;;;;;16.10;2.95;;;3.50;99.90;;;;;;5072477;28;20492;-68
2022/01/20 07:21:40;;;;;;;16.75;2.60;;;3.40;99.90;;;;;;5073683;28;20032;-69
2022/01/20 07:24:07;;;;;;;24.15;3.42;;;3.40;99.90;;;;;;5073556;28;20475;-69
2022/01/20 07:26:33;;;;;;;13.00;2.83;;;3.50;99.90;;;;;;5073128;28;20044;-69
2022/01/20 07:28:58;;;;;;;15.63;4.07;;;3.50;99.90;;;;;;5073808;28;20036;-68
2022/01/20 07:31:24;;;;;;;13.32;2.83;;;3.60;99.90;;;;;;5072439;28;20554;-68
2022/01/20 07:33:51;;;;;;;13.88;2.75;;;3.70;99.90;;;;;;5073160;28;20044;-69
2022/01/20 07:36:17;;;;;;;14.23;2.60;;;3.60;99.90;;;;;;5072989;28;20472;-69
2022/01/20 07:38:42;;;;;;;10.65;2.72;;;3.70;99.90;;;;;;5073625;28;20064;-69
2022/01/20 07:41:08;;;;;;;16.95;3.42;;;3.60;99.90;;;;;;5073311;28;20043;-69
2022/01/20 07:43:34;;;;;;;18.23;2.55;;;3.80;99.90;;;;;;5071897;28;20067;-68
2022/01/20 07:45:59;;;;;;;9.32;3.00;;;3.70;99.90;;;;;;5073082;28;20485;-69
2022/01/20 07:48:25;;;;;;;13.93;2.22;;;3.70;99.90;;;;;;5073535;28;20120;-69
2022/01/20 07:50:50;;;;;;;12.73;3.05;;;3.70;99.90;;;;;;5071905;28;20162;-69
2022/01/20 07:53:16;;;;;;;9.18;1.70;;;3.60;99.90;;;;;;5073404;28;20052;-69
2022/01/20 07:55:42;;;;;;;8.07;2.28;;;3.50;99.90;;;;;;5073010;28;20109;-68
2022/01/20 07:58:08;;;;;;;9.77;1.92;;;3.20;99.90;;;;;;5073292;28;20040;-68
2022/01/20 08:00:33;;;;;;;11.93;1.50;;;3.10;99.90;;;;;;5073285;28;20565;-68
2022/01/20 08:02:59;;;;;;;7.18;1.30;;;3.10;99.90;;;;;;5072975;28;20053;-68
2022/01/20 08:05:24;;;;;;;6.47;1.23;;;3.20;99.90;;;;;;5073171;28;20503;-68
2022/01/20 08:07:50;;;;;;;6.05;1.48;;;3.00;99.90;;;;;;5073141;28;20076;-69
2022/01/20 08:10:16;;;;;;;10.23;2.13;;;3.10;99.90;;;;;;5073022;28;20040;-68
2022/01/20 08:12:43;;;;;;;6.90;2.15;;;3.10;99.90;;;;;;5072971;28;20536;-69
2022/01/20 08:15:12;;;;;;;7.68;1.67;;;3.30;99.90;;;;;;5071836;28;20116;-69
2022/01/20 08:17:41;;;;;;;12.88;2.15;;;3.20;99.90;;;;;;5071581;28;20080;-69
2022/01/20 08:20:07;;;;;;;10.52;2.33;;;3.20;99.90;;;;;;5073083;28;20051;-69
2022/01/20 08:22:36;;;;;;;9.00;1.83;;;3.30;99.90;;;;;;5072762;28;20094;-69
2022/01/20 08:25:08;;;;;;;17.83;4.57;;;3.20;99.90;;;;;;5072669;28;20116;-68
2022/01/20 08:27:34;;;;;;;14.35;3.30;;;3.30;99.90;;;;;;5071434;28;20055;-68
2022/01/20 08:30:00;;;;;;;8.82;2.60;;;3.30;99.90;;;;;;5073052;28;20111;-68
2022/01/20 08:32:25;;;;;;;12.25;2.45;;;3.40;99.90;;;;;;5073081;28;20036;-68
2022/01/20 08:34:51;;;;;;;23.48;4.03;;;3.50;99.90;;;;;;5073216;28;20033;-68
2022/01/20 08:37:17;;;;;;;15.95;4.53;;;3.60;99.90;;;;;;5072456;28;20094;-68
2022/01/20 08:39:45;;;;;;;20.23;3.30;;;3.60;99.90;;;;;;5072771;28;20035;-68
2022/01/20 08:42:11;;;;;;;16.30;3.03;;;3.60;99.90;;;;;;5071493;28;20048;-68
2022/01/20 08:44:38;;;;;;;16.80;2.35;;;3.60;99.90;;;;;;5071839;28;20386;-68
2022/01/20 08:47:09;;;;;;;16.77;2.95;;;3.60;99.90;;;;;;5072722;28;20097;-68
2022/01/20 08:49:36;;;;;;;9.77;2.28;;;3.70;99.90;;;;;;5072918;28;20040;-68
2022/01/20 08:52:02;;;;;;;12.20;2.45;;;3.80;99.50;;;;;;5072967;28;20037;-68
2022/01/20 08:54:27;;;;;;;13.23;2.30;;;3.90;98.70;;;;;;5071409;28;20381;-68
2022/01/20 08:56:53;;;;;;;13.57;1.88;;;3.90;98.10;;;;;;5074844;28;20127;-68
2022/01/20 08:59:19;;;;;;;6.80;1.80;;;4.00;97.90;;;;;;5058333;28;20380;-68
2022/01/20 09:01:45;;;;;;;8.07;1.65;;;4.10;98.10;;;;;;5076316;28;20115;-69
2022/01/20 09:04:10;;;;;;;6.47;1.60;;;4.20;98.70;;;;;;5076320;28;20102;-68
2022/01/20 09:06:36;;;;;;;5.75;1.48;;;4.20;99.90;;;;;;5075521;28;20044;-69
2022/01/20 09:09:03;;;;;;;11.77;1.65;;;4.00;99.90;;;;;;5076297;28;20039;-69
2022/01/20 09:11:36;;;;;;;4.47;1.20;;;3.90;99.90;;;;;;5076506;28;20039;-68
2022/01/20 09:16:47;;;;;;;8.07;1.85;;;3.70;99.90;;;;;;5075884;28;20128;-68
2022/01/20 09:19:13;;;;;;;13.48;2.83;;;3.70;99.90;;;;;;5084598;28;20115;-68
2022/01/20 09:21:39;;;;;;;6.65;1.80;;;3.70;99.90;;;;;;5086178;28;20028;-68
2022/01/20 09:24:05;;;;;;;6.72;2.40;;;3.70;99.90;;;;;;5084316;28;20040;-68
2022/01/20 09:26:32;;;;;;;8.35;1.80;;;3.70;99.90;;;;;;5080714;28;20040;-68
2022/01/20 09:28:58;;;;;;;7.38;1.58;;;3.90;99.90;;;;;;5075521;28;20389;-68
2022/01/20 09:31:26;;;;;;;6.18;1.55;;;4.00;99.90;;;;;;5078500;28;20028;-69
2022/01/20 09:33:53;;;;;;;9.23;1.75;;;4.00;99.90;;;;;;5084904;28;20107;-68
2022/01/20 09:36:20;;;;;;;6.80;1.65;;;3.90;99.90;;;;;;5080417;28;20102;-68
2022/01/20 09:38:46;;;;;;;18.38;2.95;;;3.90;99.90;;;;;;5085763;28;20036;-68
2022/01/20 09:41:12;;;;;;;18.70;3.30;;;3.80;99.90;;;;;;5095516;28;20119;-68
2022/01/20 09:43:37;;;;;;;14.65;2.72;;;3.80;99.90;;;;;;5081243;28;20040;-68
2022/01/20 09:46:04;;;;;;;11.73;2.15;;;3.80;99.90;;;;;;5083720;28;20043;-68
2022/01/20 09:48:32;;;;;;;18.90;2.88;;;3.70;99.90;;;;;;5077140;28;20113;-68
2022/01/20 09:51:00;;;;;;;14.68;2.53;;;3.80;99.90;;;;;;5075637;28;20094;-68
2022/01/20 09:53:26;;;;;;;16.17;3.05;;;3.80;99.90;;;;;;5074112;28;20044;-68
2022/01/20 09:55:53;;;;;;;9.82;2.35;;;3.90;99.90;;;;;;5075130;28;20045;-68
2022/01/20 09:58:19;;;;;;;9.45;3.20;;;4.00;99.90;;;;;;5075409;28;20044;-68
2022/01/20 10:00:46;;;;;;;10.75;4.15;;;4.10;99.90;;;;;;5075139;28;20090;-68
2022/01/20 10:03:17;;;;;;;20.00;4.13;;;4.30;99.90;;;;;;5075009;28;20404;-68
2022/01/20 10:05:45;;;;;;;11.10;2.40;;;4.40;99.90;;;;;;5074308;28;20036;-68
2022/01/20 10:08:16;;;;;;;14.63;3.67;;;4.40;99.90;;;;;;5074801;28;20045;-68
2022/01/20 10:10:49;;;;;;;16.42;2.75;;;4.40;99.90;;;;;;5077891;28;20052;-68
2022/01/20 10:13:18;;;;;;;13.48;2.40;;;4.40;99.90;;;;;;5083434;28;20496;-68
2022/01/20 10:16:02;;;;;;;12.85;2.70;;;4.60;99.90;;;;;;5085353;28;20051;-68
2022/01/20 10:18:28;;;;;;;;;;;4.50;99.40;;;;;;5083255;28;20033;-68
2022/01/20 10:21:03;;;;;;;15.45;2.72;;;4.70;99.90;;;;;;5085316;28;20303;-68
2022/01/20 10:23:29;;;;;;;18.20;3.35;;;4.70;99.90;;;;;;5083351;28;20058;-68
2022/01/20 10:26:18;;;;;;;14.25;2.55;;;4.70;99.90;;;;;;5091751;28;20036;-69
2022/01/20 10:28:54;;;;;;;10.68;2.70;;;4.70;99.90;;;;;;5094548;28;20043;-69
2022/01/20 10:31:51;;;;;;;14.68;3.22;;;4.80;99.90;;;;;;5086175;28;20032;-68
2022/01/20 10:34:28;;;;;;;17.88;3.13;;;4.80;99.90;;;;;;5076124;28;20083;-68
2022/01/20 10:36:56;;;;;;;11.73;4.25;;;4.80;99.90;;;;;;5081430;28;20139;-68
2022/01/20 10:39:35;;;;;;;9.57;1.88;;;4.60;98.50;;;;;;5086452;28;20036;-68
2022/01/20 10:42:15;;;;;;;15.48;2.55;;;4.30;98.70;;;;;;5083661;28;20040;-68
2022/01/20 10:44:52;;;;;;;8.63;1.85;;;4.20;99.10;;;;;;5078067;28;20032;-68
2022/01/20 10:47:26;;;;;;;12.32;2.22;;;4.20;99.90;;;;;;5072255;28;20036;-69
2022/01/20 10:49:53;;;;;;;11.27;1.73;;;4.20;99.90;;;;;;5072893;28;20048;-68
2022/01/20 10:52:21;;;;;;;20.60;2.97;;;4.40;99.90;;;;;;5073039;28;20036;-68
2022/01/20 10:54:54;;;;;;;13.20;3.67;;;4.30;99.80;;;;;;5080005;28;20044;-67
2022/01/20 10:57:30;;;;;;;11.25;3.10;;;4.30;99.90;;;;;;5093484;28;20093;-68
2022/01/20 11:00:11;;;;;;;12.75;2.80;;;4.40;99.90;;;;;;5093138;28;20377;-71
2022/01/20 11:02:36;;;;;;;16.75;3.20;;;4.30;99.90;;;;;;5094458;28;20048;-68
2022/01/20 11:05:03;;;;;;;10.93;2.55;;;4.10;99.90;;;;;;5094085;28;20032;-68
2022/01/20 11:07:28;;;;;;;16.55;3.08;;;4.00;99.90;;;;;;5092758;28;20419;-67
2022/01/20 11:10:01;;;;;;;17.85;3.55;;;4.00;99.90;;;;;;5094562;28;20036;-67
2022/01/20 11:12:27;;;;;;;21.83;4.30;;;4.00;99.90;;;;;;5093815;28;20133;-67
2022/01/20 11:14:55;;;;;;;20.70;3.60;;;4.00;99.90;;;;;;5093722;28;20630;-67
2022/01/20 11:17:25;;;;;;;25.23;3.85;;;4.10;99.90;;;;;;5093144;28;20047;-67
2022/01/20 11:19:52;;;;;;;12.63;3.42;;;4.20;99.90;;;;;;5092870;28;20458;-67
2022/01/20 11:22:20;;;;;;;10.93;3.08;;;4.30;99.90;;;;;;5093099;28;20118;-68
2022/01/20 11:25:00;;;;;;;10.90;2.50;;;4.40;99.90;;;;;;5089008;28;20086;-68
2022/01/20 11:27:41;;;;;;;15.48;3.20;;;4.70;99.90;;;;;;5074586;28;20080;-68
2022/01/20 11:30:23;;;;;;;12.40;2.50;;;4.70;99.90;;;;;;5072379;28;20136;-67
2022/01/20 11:32:58;;;;;;;11.65;2.05;;;4.70;98.50;;;;;;5072452;28;20089;-68
2022/01/20 11:35:36;;;;;;;14.30;2.88;;;4.80;98.00;;;;;;5075571;28;20504;-67
2022/01/20 11:38:01;;;;;;;17.63;2.72;;;4.70;97.70;;;;;;5089608;28;20044;-68
2022/01/20 11:40:27;;;;;;;17.80;3.80;;;4.80;98.40;;;;;;5093464;28;20032;-68
2022/01/20 11:43:05;;;;;;;13.38;3.00;;;4.80;97.90;;;;;;5093378;28;20024;-68
2022/01/20 11:45:45;;;;;;;20.25;2.78;;;4.80;97.60;;;;;;5089930;28;20044;-67
2022/01/20 11:48:19;;;;;;;15.98;4.75;;;4.90;97.00;;;;;;5093641;28;20089;-68
2022/01/20 11:50:48;;;;;;;17.02;3.20;;;5.00;95.90;;;;;;5093700;28;20113;-68
2022/01/20 11:53:15;;;;;;;20.80;2.65;;;5.10;96.00;;;;;;5093871;28;20028;-68
2022/01/20 11:55:50;;;;;;;16.25;3.40;;;5.00;96.10;;;;;;5092315;28;20051;-67
2022/01/20 11:58:20;;;;;;;16.50;3.63;;;5.00;97.30;;;;;;5093329;28;20086;-67
2022/01/20 12:01:00;;;;;;;14.65;3.28;;;5.00;98.40;;;;;;5093572;28;20086;-67
2022/01/20 12:03:26;;;;;;;15.65;5.40;;;4.90;99.90;;;;;;5053435;28;20052;-68
2022/01/20 12:06:13;;;;;;;14.85;3.53;;;4.90;99.90;;;;;;5052876;28;20048;-67
2022/01/20 12:09:03;;;;;;;14.18;2.47;;;4.70;99.90;;;;;;5052834;28;20041;-67
2022/01/20 12:11:46;;;;;;;13.70;2.78;;;4.50;99.90;;;;;;5053240;28;20052;-67
2022/01/20 12:14:32;;;;;;;9.05;2.03;;;4.20;99.90;;;;;;5053608;28;20064;-67
2022/01/20 12:17:03;;;;;;;22.45;3.90;;;4.20;99.90;;;;;;5052640;28;20045;-67
2022/01/20 12:19:29;;;;;;;11.70;2.53;;;4.30;99.90;;;;;;5053015;28;20041;-68
2022/01/20 12:21:55;;;;;;;17.13;2.97;;;4.20;99.90;;;;;;5053116;28;20048;-67
2022/01/20 12:24:20;;;;;;;13.80;2.47;;;4.30;99.90;;;;;;5052957;28;20041;-67
2022/01/20 12:26:46;;;;;;;12.88;1.90;;;4.40;99.90;;;;;;5052490;28;20052;-67
2022/01/20 12:29:12;;;;;;;10.88;2.60;;;4.40;99.90;;;;;;5051682;28;20033;-67
2022/01/20 12:31:48;;;;;;;9.68;2.35;;;4.40;99.90;;;;;;5056247;28;20056;-67
2022/01/20 12:34:13;;;;;;;27.23;3.67;;;4.40;99.90;;;;;;5085153;28;20075;-67
2022/01/20 12:36:39;;;;;;;8.82;2.35;;;4.60;99.90;;;;;;5089036;28;20082;-67
2022/01/20 12:39:06;;;;;;;10.77;2.13;;;4.70;99.90;;;;;;5089831;28;20055;-67
2022/01/20 12:41:32;;;;;;;7.97;2.03;;;4.80;99.90;;;;;;5093153;28;20476;-67
2022/01/20 12:44:06;;;;;;;12.55;2.95;;;4.80;99.90;;;;;;5097112;28;20044;-68
2022/01/20 12:46:36;;;;;;;13.82;3.58;;;4.90;99.90;;;;;;5087673;28;20032;-68
2022/01/20 12:49:04;;;;;;;15.10;2.75;;;5.00;96.20;;;;;;5078555;28;20048;-68
2022/01/20 12:51:53;;;;;;;22.40;3.42;;;5.00;95.30;;;;;;5076350;28;20114;-68
2022/01/20 12:54:27;;;;;;;13.82;2.55;;;5.00;96.00;;;;;;5076694;28;20032;-67
2022/01/20 12:56:54;;;;;;;12.27;2.97;;;5.00;95.90;;;;;;5076311;28;20044;-67
2022/01/20 12:59:28;;;;;;;16.58;2.90;;;5.10;95.70;;;;;;5075138;28;20048;-67
2022/01/20 13:01:56;;;;;;;12.02;2.15;;;5.10;95.50;;;;;;5076389;28;20048;-67
2022/01/20 13:04:26;;;;;;;11.00;2.95;;;5.00;95.00;;;;;;5074558;28;20048;-68
2022/01/20 13:06:56;;;;;;;15.38;2.70;;;5.10;95.70;;;;;;5074517;28;20127;-68
2022/01/20 13:09:25;;;;;;;13.95;3.17;;;5.20;95.70;;;;;;5075729;28;20067;-67
2022/01/20 13:11:57;;;;;;;14.90;3.08;;;5.10;95.50;;;;;;5081434;28;20039;-68
2022/01/20 13:14:39;;;;;;;12.57;2.47;;;5.20;95.80;;;;;;5079913;28;20032;-68
2022/01/20 13:17:09;;;;;;;22.35;2.88;;;5.20;95.00;;;;;;5069280;28;20044;-68
2022/01/20 13:19:46;;;;;;;12.93;2.60;;;5.10;95.10;;;;;;5075805;28;20516;-67
2022/01/20 13:22:20;;;;;;;7.53;2.08;;;5.00;97.30;;;;;;5075897;28;20037;-68
2022/01/20 13:24:46;;;;;;;12.45;3.70;;;4.90;98.30;;;;;;5075846;28;20457;-67
2022/01/20 13:27:13;;;;;;;9.15;2.05;;;4.70;98.70;;;;;;5074345;28;20128;-67
2022/01/20 13:29:49;;;;;;;9.05;2.20;;;4.60;99.70;;;;;;5074789;28;20485;-67
2022/01/20 13:32:16;;;;;;;7.18;1.98;;;4.50;99.90;;;;;;5074333;28;20492;-68
2022/01/20 13:34:56;;;;;;;6.47;2.00;;;4.40;99.90;;;;;;5075699;28;20064;-67
2022/01/20 13:37:22;;;;;;;6.68;1.45;;;4.50;99.90;;;;;;5077727;28;20040;-69
2022/01/20 13:39:49;;;;;;;4.65;1.10;;;4.50;99.90;;;;;;5072713;28;20134;-67
2022/01/20 13:45:13;;;;;;;7.65;1.92;;;4.60;99.10;;;;;;5074390;28;20067;-67
2022/01/20 13:47:48;;;;;;;5.95;1.08;;;4.50;99.30;;;;;;5075060;28;20048;-67
2022/01/20 13:50:19;;;;;;;11.20;2.20;;;4.40;99.30;;;;;;5074322;28;20036;-70
2022/01/20 13:52:45;;;;;;;8.98;1.90;;;4.40;99.80;;;;;;5075191;28;20468;-68
2022/01/20 13:55:19;;;;;;;7.03;1.95;;;4.50;99.90;;;;;;5075196;28;20040;-68
2022/01/20 13:57:45;;;;;;;10.73;2.03;;;4.50;99.90;;;;;;5074792;28;20044;-68
2022/01/20 14:00:14;;;;;;;8.88;1.80;;;4.40;99.90;;;;;;5075286;28;20033;-67
2022/01/20 14:02:41;;;;;;;15.35;2.53;;;4.50;99.50;;;;;;5075526;28;20041;-67
2022/01/20 14:05:07;;;;;;;13.65;2.40;;;4.50;98.70;;;;;;5082841;28;20036;-67
2022/01/20 14:07:33;;;;;;;8.27;2.28;;;4.50;98.60;;;;;;5082758;28;20413;-68